Estrela do Indaia, Brazil
Current Conditions -  °F | °C
As of 3:00 AM on Thursday 23 Oct 2014 (Local Time) from SBBH Reporting Station
Broken Clouds Broken Clouds  
Wind Chill: 66°   Ceiling: 2000
Heat Index: 66°   Visibility: 6mi
Dew Point: 57°   Wind: 12mph
Humidity: 73%   Direction: 100°E
Pressure: 30.15"   Gusts: NA
Location:  19.52°S, 45.79°W
Report Text: SBBH 230500Z 10010KT 9999 BKN020 19/14 Q1021
Loading
Personal Weather Stations






























Interactive Weather Map
Tropical Storm Tracking
New forecast layout! Learn more

10-Day Weather Forecast

Advertisements
Track Severe Weather on mobile